createdAt,value
2023-06-04T00:02:07.892Z,1.35
2023-06-04T00:04:35.165Z,1.40
2023-06-04T00:07:02.321Z,1.52
2023-06-04T00:09:29.479Z,1.17
2023-06-04T00:11:56.923Z,1.60
2023-06-04T00:14:24.978Z,1.40
2023-06-04T00:16:52.097Z,1.52
2023-06-04T00:19:19.286Z,1.30
2023-06-04T00:21:46.869Z,1.50
2023-06-04T00:24:14.285Z,1.50
2023-06-04T00:26:41.750Z,1.23
2023-06-04T00:29:08.927Z,1.60
2023-06-04T00:31:36.646Z,1.48
2023-06-04T00:34:05.447Z,1.25
2023-06-04T00:36:32.547Z,1.60
2023-06-04T00:38:59.716Z,2.05
2023-06-04T00:41:27.445Z,1.90
2023-06-04T00:43:57.828Z,1.98
2023-06-04T00:46:26.490Z,2.08
2023-06-04T00:48:54.317Z,2.10
2023-06-04T00:51:22.137Z,2.00
2023-06-04T00:53:50.858Z,1.30
2023-06-04T00:56:18.202Z,1.38
2023-06-04T00:58:46.346Z,1.77
2023-06-04T01:01:34.085Z,1.35
2023-06-04T01:04:02.635Z,1.70
2023-06-04T01:06:44.753Z,1.60
2023-06-04T01:09:12.769Z,1.63
2023-06-04T01:11:40.724Z,1.52
2023-06-04T01:14:09.618Z,1.75
2023-06-04T01:16:41.908Z,1.65
2023-06-04T01:19:22.160Z,1.50
2023-06-04T01:21:52.312Z,1.70
2023-06-04T01:24:23.649Z,1.90
2023-06-04T01:26:52.616Z,2.10
2023-06-04T01:29:19.861Z,1.50
2023-06-04T01:31:47.515Z,1.98
2023-06-04T01:34:14.686Z,2.10
2023-06-04T01:36:41.838Z,1.80
2023-06-04T01:39:09.003Z,1.92
2023-06-04T01:41:36.316Z,2.13
2023-06-04T01:44:03.434Z,1.88
2023-06-04T01:46:30.600Z,1.58
2023-06-04T01:48:57.724Z,1.30
2023-06-04T01:51:24.829Z,1.63
2023-06-04T01:53:52.064Z,1.67
2023-06-04T01:56:22.107Z,1.40
2023-06-04T01:58:49.247Z,1.88
2023-06-04T02:01:18.110Z,2.03
2023-06-04T02:03:45.782Z,1.63
2023-06-04T02:06:13.443Z,1.95
2023-06-04T02:08:42.280Z,1.92
2023-06-04T02:11:09.551Z,1.60
2023-06-04T02:13:36.992Z,1.83
2023-06-04T02:16:04.958Z,1.73
2023-06-04T02:18:32.093Z,1.77
2023-06-04T02:20:59.746Z,1.50
2023-06-04T02:23:27.006Z,1.73
2023-06-04T02:25:54.207Z,1.90
2023-06-04T02:28:22.060Z,2.17
2023-06-04T02:30:49.236Z,2.60
2023-06-04T02:33:16.616Z,3.95
2023-06-04T02:35:44.037Z,3.60
2023-06-04T02:38:11.452Z,4.30
2023-06-04T02:40:38.622Z,5.07
2023-06-04T02:43:06.044Z,5.30
2023-06-04T02:45:34.250Z,5.82
2023-06-04T02:48:01.758Z,5.78
2023-06-04T02:50:28.940Z,5.22
2023-06-04T02:52:56.253Z,5.15
2023-06-04T02:55:23.378Z,4.03
2023-06-04T02:57:52.916Z,4.75
2023-06-04T03:00:20.137Z,6.40
2023-06-04T03:02:47.882Z,5.00
2023-06-04T03:05:15.854Z,6.30
2023-06-04T03:07:46.737Z,6.82
2023-06-04T03:10:14.742Z,7.90
2023-06-04T03:12:41.879Z,7.03
2023-06-04T03:15:09.423Z,6.03
2023-06-04T03:17:36.569Z,5.80
2023-06-04T03:20:05.520Z,5.45
2023-06-04T03:22:34.711Z,6.30
2023-06-04T03:25:01.844Z,4.95
2023-06-04T03:27:29.102Z,4.85
2023-06-04T03:29:56.251Z,4.93
2023-06-04T03:32:23.421Z,3.28
2023-06-04T03:34:50.737Z,3.53
2023-06-04T03:37:18.759Z,3.58
2023-06-04T03:39:45.949Z,3.75
2023-06-04T03:42:13.050Z,3.10
2023-06-04T03:44:40.240Z,3.25
2023-06-04T03:47:07.434Z,2.85
2023-06-04T03:49:34.616Z,2.92
2023-06-04T03:52:01.750Z,2.53
2023-06-04T03:54:28.845Z,2.53
2023-06-04T03:56:56.510Z,3.22
2023-06-04T03:59:23.722Z,2.53
2023-06-04T04:01:50.932Z,2.85
2023-06-04T04:04:18.650Z,2.78
2023-06-04T04:06:45.978Z,2.55
2023-06-04T04:09:13.114Z,3.03
2023-06-04T04:11:40.221Z,2.45
2023-06-04T04:14:07.452Z,2.45
2023-06-04T04:16:34.581Z,2.83
2023-06-04T04:19:01.725Z,2.60
2023-06-04T04:21:28.971Z,2.50
2023-06-04T04:23:56.141Z,2.60
2023-06-04T04:26:23.318Z,2.08
2023-06-04T04:28:50.796Z,2.65
2023-06-04T04:31:18.744Z,2.53
2023-06-04T04:33:46.552Z,2.13
2023-06-04T04:36:15.163Z,2.13
2023-06-04T04:38:42.406Z,2.65
2023-06-04T04:41:09.895Z,3.33
2023-06-04T04:43:41.421Z,2.08
2023-06-04T04:46:09.000Z,2.60
2023-06-04T04:48:36.185Z,2.08
2023-06-04T04:51:03.337Z,2.10
2023-06-04T04:53:30.435Z,2.55
2023-06-04T04:55:57.547Z,2.08
2023-06-04T04:58:24.727Z,2.95
2023-06-04T05:00:51.854Z,3.65
2023-06-04T05:03:18.973Z,4.50
2023-06-04T05:05:46.292Z,3.30
2023-06-04T05:08:13.484Z,3.20
2023-06-04T05:10:40.948Z,2.28
2023-06-04T05:13:08.187Z,2.85
2023-06-04T05:15:35.407Z,2.50
2023-06-04T05:18:03.228Z,3.42
2023-06-04T05:20:30.841Z,2.60
2023-06-04T05:22:58.082Z,2.50
2023-06-04T05:25:25.516Z,2.08
2023-06-04T05:27:52.906Z,2.80
2023-06-04T05:30:20.132Z,3.03
2023-06-04T05:32:47.316Z,2.90
2023-06-04T05:35:14.698Z,3.03
2023-06-04T05:37:42.994Z,2.50
2023-06-04T05:40:11.566Z,2.20
2023-06-04T05:42:39.334Z,2.25
2023-06-04T05:45:09.243Z,2.20
2023-06-04T05:47:36.391Z,2.13
2023-06-04T05:50:03.813Z,2.42
2023-06-04T05:52:31.022Z,2.20
2023-06-04T05:54:58.133Z,2.30
2023-06-04T05:57:25.298Z,2.30
2023-06-04T05:59:52.384Z,2.65
2023-06-04T06:02:19.608Z,2.70
2023-06-04T06:04:46.854Z,2.42
2023-06-04T06:07:14.010Z,2.13
2023-06-04T06:09:41.322Z,2.47
2023-06-04T06:12:08.518Z,2.45
2023-06-04T06:14:36.719Z,2.30
2023-06-04T06:17:04.121Z,2.03
2023-06-04T06:19:31.344Z,1.83
2023-06-04T06:21:59.721Z,2.10
2023-06-04T06:24:27.024Z,2.03
2023-06-04T06:26:54.225Z,1.92
2023-06-04T06:29:21.852Z,1.67
2023-06-04T06:31:49.133Z,1.60
2023-06-04T06:34:16.345Z,1.30
2023-06-04T06:36:43.764Z,1.52
2023-06-04T06:39:11.494Z,1.65
2023-06-04T06:41:42.268Z,1.40
2023-06-04T06:44:09.441Z,1.60
2023-06-04T06:46:36.642Z,1.58
2023-06-04T06:49:03.933Z,1.95
2023-06-04T06:51:31.116Z,1.33
2023-06-04T06:53:58.219Z,1.35
2023-06-04T06:56:26.316Z,1.45
2023-06-04T06:58:53.611Z,1.30
2023-06-04T07:01:20.920Z,1.30
2023-06-04T07:03:48.364Z,1.30
2023-06-04T07:06:15.814Z,1.23
2023-06-04T07:08:43.328Z,1.23
2023-06-04T07:11:13.279Z,1.45
2023-06-04T07:13:41.015Z,1.10
2023-06-04T07:16:08.126Z,1.33
2023-06-04T07:18:35.473Z,1.33
2023-06-04T07:21:02.692Z,2.05
2023-06-04T07:23:29.956Z,1.90
2023-06-04T07:25:57.640Z,1.75
2023-06-04T07:28:24.752Z,1.45
2023-06-04T07:30:52.035Z,1.67
2023-06-04T07:33:19.232Z,1.60
2023-06-04T07:35:46.486Z,1.70
2023-06-04T07:38:13.603Z,1.85
2023-06-04T07:40:40.752Z,1.70
2023-06-04T07:43:07.843Z,1.98
2023-06-04T07:45:36.345Z,1.85
2023-06-04T07:48:03.929Z,2.25
2023-06-04T07:50:33.922Z,2.20
2023-06-04T07:53:02.993Z,2.03
2023-06-04T07:55:30.141Z,1.83
2023-06-04T07:57:57.229Z,2.15
2023-06-04T08:00:24.353Z,2.28
2023-06-04T08:02:51.982Z,2.25
2023-06-04T08:05:19.163Z,2.45
2023-06-04T08:07:48.579Z,2.20
2023-06-04T08:10:15.996Z,1.90
2023-06-04T08:12:43.205Z,1.83
2023-06-04T08:15:11.937Z,1.63
2023-06-04T08:17:39.174Z,1.52
2023-06-04T08:20:15.587Z,1.20
2023-06-04T08:22:42.969Z,1.27
2023-06-04T08:25:11.361Z,1.30
2023-06-04T08:27:38.771Z,1.50
2023-06-04T08:30:06.883Z,1.55
2023-06-04T08:32:34.276Z,1.67
2023-06-04T08:35:01.527Z,1.70
2023-06-04T08:37:29.242Z,1.90
2023-06-04T08:39:56.481Z,1.90
2023-06-04T08:42:34.314Z,1.55
2023-06-04T08:45:01.898Z,1.60
2023-06-04T08:47:31.288Z,1.92
2023-06-04T08:50:01.577Z,1.77
2023-06-04T08:52:28.979Z,1.95
2023-06-04T08:54:57.822Z,1.60
2023-06-04T08:57:25.162Z,1.60
2023-06-04T08:59:52.408Z,1.65
2023-06-04T09:02:19.643Z,1.60
2023-06-04T09:04:47.022Z,1.83
2023-06-04T09:07:14.885Z,1.52
2023-06-04T09:09:42.464Z,1.58
2023-06-04T09:12:12.152Z,1.30
2023-06-04T09:14:39.288Z,1.60
2023-06-04T09:17:06.569Z,1.30
2023-06-04T09:19:33.762Z,1.80
2023-06-04T09:22:03.691Z,1.35
2023-06-04T09:25:03.556Z,1.40
2023-06-04T09:27:39.147Z,1.63
2023-06-04T09:30:07.157Z,1.40
2023-06-04T09:32:34.273Z,1.10
2023-06-04T09:35:12.823Z,1.40
2023-06-04T09:37:44.032Z,1.38
2023-06-04T09:40:11.559Z,1.25
2023-06-04T09:42:45.759Z,1.52
2023-06-04T09:45:13.153Z,1.02
2023-06-04T09:47:41.231Z,1.23
2023-06-04T09:50:09.414Z,1.40
2023-06-04T09:52:37.349Z,1.25
2023-06-04T09:55:04.893Z,1.30
2023-06-04T09:57:33.131Z,1.40
2023-06-04T10:00:01.127Z,1.50
2023-06-04T10:02:30.484Z,1.20
2023-06-04T10:04:58.456Z,1.48
2023-06-04T10:07:26.122Z,1.33
2023-06-04T10:09:54.077Z,1.50
2023-06-04T10:12:25.294Z,1.10
2023-06-04T10:14:56.551Z,1.20
2023-06-04T10:17:26.263Z,1.88
2023-06-04T10:19:55.382Z,1.25
2023-06-04T10:22:22.668Z,1.25
2023-06-04T10:24:50.069Z,1.70
2023-06-04T10:27:21.260Z,1.48
2023-06-04T10:29:48.373Z,1.42
2023-06-04T10:32:16.567Z,1.20
2023-06-04T10:34:43.861Z,1.10
2023-06-04T10:37:23.996Z,1.50
2023-06-04T10:39:55.024Z,1.30
2023-06-04T10:42:22.528Z,1.48
2023-06-04T10:44:51.158Z,5.63
2023-06-04T10:47:22.957Z,1.63
2023-06-04T10:49:51.685Z,1.40
2023-06-04T10:52:19.238Z,1.30
2023-06-04T10:54:47.591Z,1.33
2023-06-04T10:57:15.012Z,1.38
2023-06-04T10:59:42.118Z,1.30
2023-06-04T11:02:09.844Z,1.25
2023-06-04T11:04:41.234Z,1.42
2023-06-04T11:07:10.302Z,1.10
2023-06-04T11:09:38.886Z,1.48
2023-06-04T11:12:07.131Z,1.92
2023-06-04T11:14:34.308Z,1.30
2023-06-04T11:17:14.293Z,1.75
2023-06-04T11:19:41.542Z,1.30
2023-06-04T11:22:12.280Z,1.27
2023-06-04T11:24:39.415Z,1.23
2023-06-04T11:27:10.741Z,1.23
2023-06-04T11:29:42.298Z,1.33
2023-06-04T11:32:09.394Z,1.30
2023-06-04T11:34:38.494Z,1.30
2023-06-04T11:37:11.769Z,1.38
2023-06-04T11:39:40.600Z,1.23
2023-06-04T11:42:08.346Z,1.20
2023-06-04T11:44:35.903Z,1.40
2023-06-04T11:47:06.778Z,1.50
2023-06-04T11:52:01.720Z,1.30
2023-06-04T11:54:28.949Z,1.40
2023-06-04T11:56:56.156Z,1.48
2023-06-04T11:59:23.378Z,1.10
2023-06-04T12:01:50.730Z,1.25
2023-06-04T12:04:18.809Z,1.40
2023-06-04T12:06:54.151Z,1.30
2023-06-04T12:09:22.441Z,1.25
2023-06-04T12:11:49.845Z,1.13
2023-06-04T12:14:20.350Z,1.40
2023-06-04T12:17:00.493Z,1.45
2023-06-04T12:19:28.271Z,1.30
2023-06-04T12:22:04.688Z,1.65
2023-06-04T12:24:32.928Z,1.20
2023-06-04T12:27:03.765Z,1.88
2023-06-04T12:29:31.000Z,1.63
2023-06-04T12:32:14.184Z,2.05
2023-06-04T12:34:41.923Z,1.48
2023-06-04T12:37:09.676Z,1.33
2023-06-04T12:39:38.143Z,1.58
2023-06-04T12:42:07.843Z,1.77
2023-06-04T12:44:36.094Z,1.55
2023-06-04T12:47:03.666Z,1.40
2023-06-04T12:49:30.939Z,1.63
2023-06-04T12:51:58.382Z,1.40
2023-06-04T12:54:25.542Z,1.35
2023-06-04T12:56:52.718Z,1.70
2023-06-04T12:59:19.960Z,1.70
2023-06-04T13:01:47.208Z,1.90
2023-06-04T13:04:14.554Z,1.90
2023-06-04T13:06:41.754Z,1.30
2023-06-04T13:09:12.077Z,1.35
2023-06-04T13:11:43.356Z,1.23
2023-06-04T13:14:10.934Z,1.73
2023-06-04T13:16:38.552Z,1.45
2023-06-04T13:19:05.856Z,1.60
2023-06-04T13:21:33.147Z,1.20
2023-06-04T13:24:00.463Z,1.10
2023-06-04T13:26:27.689Z,1.60
2023-06-04T13:28:54.790Z,1.42
2023-06-04T13:31:22.274Z,1.33
2023-06-04T13:33:49.474Z,1.70
2023-06-04T13:36:16.584Z,1.60
2023-06-04T13:38:44.686Z,1.48
2023-06-04T13:41:11.952Z,1.33
2023-06-04T13:43:40.042Z,3.67
2023-06-04T13:46:07.426Z,1.13
2023-06-04T13:48:34.583Z,1.35
2023-06-04T13:51:01.846Z,1.08
2023-06-04T13:53:28.999Z,1.50
2023-06-04T13:55:59.321Z,1.83
2023-06-04T13:58:27.061Z,1.73
2023-06-04T14:00:55.028Z,1.42
2023-06-04T14:03:22.488Z,1.42
2023-06-04T14:05:49.881Z,2.17
2023-06-04T14:08:17.119Z,2.78
2023-06-04T14:10:44.286Z,2.10
2023-06-04T14:13:11.442Z,2.17
2023-06-04T14:15:39.473Z,1.38
2023-06-04T14:18:06.937Z,1.38
2023-06-04T14:20:34.077Z,1.48
2023-06-04T14:23:01.342Z,1.67
2023-06-04T14:25:28.697Z,1.67
2023-06-04T14:27:55.852Z,1.60
2023-06-04T14:30:23.111Z,1.40
2023-06-04T14:32:50.691Z,1.50
2023-06-04T14:35:17.861Z,1.42
2023-06-04T14:37:45.044Z,1.58
2023-06-04T14:40:12.329Z,1.55
2023-06-04T14:42:39.420Z,1.38
2023-06-04T14:45:06.880Z,1.30
2023-06-04T14:47:34.025Z,1.35
2023-06-04T14:50:01.179Z,1.08
2023-06-04T14:52:29.176Z,1.38
2023-06-04T14:54:56.272Z,1.48
2023-06-04T14:57:23.383Z,1.13
2023-06-04T14:59:50.648Z,1.10
2023-06-04T15:02:21.739Z,1.50
2023-06-04T15:04:49.001Z,1.38
2023-06-04T15:07:16.160Z,1.20
2023-06-04T15:09:43.256Z,1.30
2023-06-04T15:12:10.378Z,1.33
2023-06-04T15:14:37.558Z,1.30
2023-06-04T15:17:04.808Z,1.23
2023-06-04T15:19:31.918Z,1.15
2023-06-04T15:21:59.079Z,1.48
2023-06-04T15:24:26.177Z,1.13
2023-06-04T15:26:53.374Z,1.60
2023-06-04T15:29:20.637Z,1.00
2023-06-04T15:31:47.863Z,1.20
2023-06-04T15:34:15.016Z,0.90
2023-06-04T15:36:42.211Z,0.90
2023-06-04T15:39:09.384Z,1.10
2023-06-04T15:41:36.510Z,1.10
2023-06-04T15:44:03.817Z,1.23
2023-06-04T15:46:31.426Z,1.02
2023-06-04T15:48:58.669Z,1.10
2023-06-04T15:51:25.914Z,1.15
2023-06-04T15:53:53.105Z,1.02
2023-06-04T15:56:20.269Z,1.25
2023-06-04T15:58:47.528Z,1.15
2023-06-04T16:01:14.660Z,1.00
2023-06-04T16:03:41.888Z,1.10
2023-06-04T16:06:09.455Z,0.90
2023-06-04T16:08:37.377Z,1.10
2023-06-04T16:11:04.805Z,1.20
2023-06-04T16:13:32.212Z,1.17
2023-06-04T16:16:00.975Z,1.20
2023-06-04T16:18:28.743Z,1.35
2023-06-04T16:20:56.457Z,1.10
2023-06-04T16:23:23.714Z,1.17
2023-06-04T16:25:51.240Z,1.25
2023-06-04T16:28:19.900Z,1.20
2023-06-04T16:30:47.157Z,1.27
2023-06-04T16:33:14.383Z,1.50
2023-06-04T16:35:41.533Z,1.20
2023-06-04T16:38:08.733Z,1.17
2023-06-04T16:40:36.003Z,1.05
2023-06-04T16:43:03.582Z,1.30
2023-06-04T16:45:30.836Z,1.63
2023-06-04T16:47:58.010Z,1.60
2023-06-04T16:50:25.208Z,1.60
2023-06-04T16:52:52.439Z,1.10
2023-06-04T16:55:19.586Z,0.95
2023-06-04T16:57:46.780Z,1.73
2023-06-04T17:00:25.544Z,1.52
2023-06-04T17:02:58.072Z,1.55
2023-06-04T17:07:53.622Z,2.63
2023-06-04T17:10:21.238Z,1.30
2023-06-04T17:12:48.410Z,1.65
2023-06-04T17:15:15.570Z,1.20
2023-06-04T17:17:42.802Z,1.23
2023-06-04T17:20:10.127Z,1.70
2023-06-04T17:22:39.040Z,1.15
2023-06-04T17:25:06.648Z,1.30
2023-06-04T17:27:34.029Z,1.77
2023-06-04T17:30:01.172Z,1.73
2023-06-04T17:32:28.335Z,2.10
2023-06-04T17:34:55.525Z,1.30
2023-06-04T17:37:22.699Z,1.65
2023-06-04T17:39:49.963Z,1.40
2023-06-04T17:42:17.123Z,1.67
2023-06-04T17:44:44.254Z,1.80
2023-06-04T17:47:11.663Z,1.42
2023-06-04T17:49:38.778Z,1.65
2023-06-04T17:52:06.159Z,1.65
2023-06-04T17:54:33.363Z,1.42
2023-06-04T17:57:00.493Z,2.08
2023-06-04T17:59:27.597Z,1.70
2023-06-04T18:01:55.264Z,2.05
2023-06-04T18:04:22.613Z,1.40
2023-06-04T18:06:49.887Z,1.88
2023-06-04T18:09:17.151Z,2.20
2023-06-04T18:11:44.690Z,2.40
2023-06-04T18:14:11.840Z,2.40
2023-06-04T18:16:39.094Z,1.88
2023-06-04T18:19:06.224Z,2.10
2023-06-04T18:21:33.310Z,1.83
2023-06-04T18:24:00.852Z,2.50
2023-06-04T18:26:28.116Z,2.72
2023-06-04T18:28:55.225Z,2.70
2023-06-04T18:31:22.578Z,3.00
2023-06-04T18:34:02.728Z,2.72
2023-06-04T18:36:30.495Z,2.50
2023-06-04T18:38:57.644Z,2.67
2023-06-04T18:41:24.795Z,2.60
2023-06-04T18:43:52.281Z,2.53
2023-06-04T18:46:19.996Z,2.60
2023-06-04T18:48:48.099Z,12.30
2023-06-04T18:51:15.483Z,4.55
2023-06-04T18:53:42.648Z,2.38
2023-06-04T18:56:10.068Z,2.40
2023-06-04T18:58:37.303Z,2.65
2023-06-04T19:01:04.417Z,2.45
2023-06-04T19:03:31.752Z,2.58
2023-06-04T19:05:58.991Z,2.58
2023-06-04T19:08:26.189Z,2.70
2023-06-04T19:10:53.593Z,2.63
2023-06-04T19:13:21.067Z,3.83
2023-06-04T19:15:50.727Z,4.00
2023-06-04T19:18:17.977Z,3.53
2023-06-04T19:20:45.185Z,2.95
2023-06-04T19:23:12.498Z,3.00
2023-06-04T19:25:39.698Z,3.38
2023-06-04T19:28:07.079Z,6.80
2023-06-04T19:30:34.270Z,3.95
2023-06-04T19:33:01.480Z,3.67
2023-06-04T19:35:28.732Z,4.38
2023-06-04T19:37:55.903Z,4.15
2023-06-04T19:40:23.016Z,4.97
2023-06-04T19:42:50.205Z,4.55
2023-06-04T19:45:17.372Z,4.25
2023-06-04T19:47:44.500Z,3.97
2023-06-04T19:50:12.320Z,3.15
2023-06-04T19:52:39.621Z,3.85
2023-06-04T19:55:09.013Z,3.05
2023-06-04T19:57:36.211Z,4.18
2023-06-04T20:00:04.726Z,4.25
2023-06-04T20:02:31.938Z,3.90
2023-06-04T20:04:59.438Z,4.00
2023-06-04T20:07:30.193Z,4.32
2023-06-04T20:09:57.381Z,4.15
2023-06-04T20:12:24.623Z,4.82
2023-06-04T20:14:51.859Z,8.30
2023-06-04T20:17:19.025Z,4.82
2023-06-04T20:19:46.265Z,5.88
2023-06-04T20:22:13.390Z,6.63
2023-06-04T20:24:41.427Z,6.38
2023-06-04T20:27:08.617Z,6.05
2023-06-04T20:29:35.776Z,6.50
2023-06-04T20:32:02.874Z,6.20
2023-06-04T20:34:30.151Z,6.45
2023-06-04T20:36:58.073Z,6.63
2023-06-04T20:39:31.528Z,5.30
2023-06-04T20:41:59.002Z,5.20
2023-06-04T20:44:26.134Z,5.13
2023-06-04T20:46:53.370Z,5.75
2023-06-04T20:49:20.527Z,5.72
2023-06-04T20:51:47.633Z,5.35
2023-06-04T20:54:14.868Z,5.28
2023-06-04T20:56:42.014Z,3.70
2023-06-04T20:59:09.154Z,4.45
2023-06-04T21:01:36.381Z,4.30
2023-06-04T21:04:04.498Z,4.68
2023-06-04T21:06:31.837Z,2.92
2023-06-04T21:08:59.029Z,3.47
2023-06-04T21:11:27.928Z,1.70
2023-06-04T21:13:57.464Z,1.85
2023-06-04T21:16:24.742Z,1.50
2023-06-04T21:18:52.727Z,1.73
2023-06-04T21:21:19.893Z,2.88
2023-06-04T21:23:47.120Z,3.58
2023-06-04T21:26:14.264Z,3.50
2023-06-04T21:28:41.374Z,3.50
2023-06-04T21:31:08.869Z,3.17
2023-06-04T21:33:36.460Z,2.78
2023-06-04T21:36:03.571Z,3.13
2023-06-04T21:38:30.754Z,3.13
2023-06-04T21:40:57.926Z,2.78
2023-06-04T21:43:25.026Z,2.58
2023-06-04T21:45:52.661Z,3.00
2023-06-04T21:48:19.756Z,2.53
2023-06-04T21:50:46.858Z,2.75
2023-06-04T21:53:15.497Z,2.35
2023-06-04T21:55:42.620Z,2.50
2023-06-04T21:58:09.738Z,2.28
2023-06-04T22:00:36.893Z,2.47
2023-06-04T22:03:04.211Z,2.40
2023-06-04T22:05:31.364Z,2.38
2023-06-04T22:08:01.938Z,2.35
2023-06-04T22:10:29.235Z,2.30
2023-06-04T22:12:56.382Z,2.90
2023-06-04T22:15:23.593Z,2.85
2023-06-04T22:17:50.727Z,3.47
2023-06-04T22:20:17.909Z,3.08
2023-06-04T22:22:45.076Z,3.00
2023-06-04T22:25:12.184Z,2.90
2023-06-04T22:27:39.276Z,2.33
2023-06-04T22:30:06.839Z,2.55
2023-06-04T22:32:33.975Z,2.95
2023-06-04T22:35:01.141Z,2.67
2023-06-04T22:37:28.333Z,2.60
2023-06-04T22:39:56.045Z,2.97
2023-06-04T22:42:23.175Z,2.63
2023-06-04T22:44:50.327Z,2.58
2023-06-04T22:47:17.397Z,2.58
2023-06-04T22:49:44.556Z,3.22
2023-06-04T22:52:11.761Z,2.50
2023-06-04T22:54:38.852Z,2.90
2023-06-04T22:57:06.608Z,2.50
2023-06-04T22:59:33.810Z,3.03
2023-06-04T23:02:01.027Z,2.55
2023-06-04T23:04:28.225Z,3.15
2023-06-04T23:06:55.391Z,2.70
2023-06-04T23:09:22.493Z,2.80
2023-06-04T23:11:49.614Z,3.30
2023-06-04T23:14:16.928Z,3.72
2023-06-04T23:16:44.085Z,3.67
2023-06-04T23:19:11.234Z,3.72
2023-06-04T23:21:38.413Z,3.58
2023-06-04T23:24:06.200Z,3.25
2023-06-04T23:26:33.368Z,4.57
2023-06-04T23:29:00.640Z,3.70
2023-06-04T23:31:27.788Z,3.80
2023-06-04T23:33:54.966Z,4.20
2023-06-04T23:36:22.148Z,3.88
2023-06-04T23:38:49.330Z,3.47
2023-06-04T23:41:16.485Z,4.22
2023-06-04T23:43:43.750Z,3.15
2023-06-04T23:46:11.106Z,3.13
2023-06-04T23:48:38.254Z,4.15
2023-06-04T23:51:06.174Z,4.28
2023-06-04T23:53:33.374Z,3.38
2023-06-04T23:56:00.606Z,3.60
2023-06-04T23:58:27.894Z,3.60
